sensor_id;sensor_type;location;lat;lon;timestamp;temperature;humidity
49777;DHT22;35673;51.482;7.436;2023-06-01T00:01:47;18.10;65.10
49777;DHT22;35673;51.482;7.436;2023-06-01T00:04:13;18.20;65.20
49777;DHT22;35673;51.482;7.436;2023-06-01T00:06:39;18.10;65.10
49777;DHT22;35673;51.482;7.436;2023-06-01T00:09:04;18.10;65.30
49777;DHT22;35673;51.482;7.436;2023-06-01T00:11:30;17.90;65.40
49777;DHT22;35673;51.482;7.436;2023-06-01T00:13:56;17.90;66.00
49777;DHT22;35673;51.482;7.436;2023-06-01T00:16:21;17.80;66.30
49777;DHT22;35673;51.482;7.436;2023-06-01T00:18:48;17.70;66.80
49777;DHT22;35673;51.482;7.436;2023-06-01T00:21:13;17.70;67.10
49777;DHT22;35673;51.482;7.436;2023-06-01T00:23:39;17.70;67.10
49777;DHT22;35673;51.482;7.436;2023-06-01T00:26:09;17.70;67.50
49777;DHT22;35673;51.482;7.436;2023-06-01T00:28:34;17.60;67.80
49777;DHT22;35673;51.482;7.436;2023-06-01T00:31:00;17.50;67.80
49777;DHT22;35673;51.482;7.436;2023-06-01T00:33:25;17.50;68.20
49777;DHT22;35673;51.482;7.436;2023-06-01T00:35:51;17.40;68.40
49777;DHT22;35673;51.482;7.436;2023-06-01T00:38:17;17.40;68.40
49777;DHT22;35673;51.482;7.436;2023-06-01T00:40:42;17.40;68.70
49777;DHT22;35673;51.482;7.436;2023-06-01T00:43:15;17.30;68.70
49777;DHT22;35673;51.482;7.436;2023-06-01T00:45:41;17.30;68.80
49777;DHT22;35673;51.482;7.436;2023-06-01T00:48:06;17.20;68.80
49777;DHT22;35673;51.482;7.436;2023-06-01T00:50:32;17.20;69.10
49777;DHT22;35673;51.482;7.436;2023-06-01T00:52:58;17.20;69.00
49777;DHT22;35673;51.482;7.436;2023-06-01T00:55:24;17.10;69.10
49777;DHT22;35673;51.482;7.436;2023-06-01T00:57:50;17.00;69.10
49777;DHT22;35673;51.482;7.436;2023-06-01T01:00:16;16.90;69.30
49777;DHT22;35673;51.482;7.436;2023-06-01T01:02:42;16.90;69.60
49777;DHT22;35673;51.482;7.436;2023-06-01T01:05:10;16.80;70.00
49777;DHT22;35673;51.482;7.436;2023-06-01T01:13:26;16.80;70.10
49777;DHT22;35673;51.482;7.436;2023-06-01T01:18:25;16.80;70.40
49777;DHT22;35673;51.482;7.436;2023-06-01T01:20:55;16.70;70.70
49777;DHT22;35673;51.482;7.436;2023-06-01T01:26:34;16.60;70.70
49777;DHT22;35673;51.482;7.436;2023-06-01T01:28:57;16.60;70.60
49777;DHT22;35673;51.482;7.436;2023-06-01T01:31:25;16.40;71.20
49777;DHT22;35673;51.482;7.436;2023-06-01T01:33:55;16.40;71.30
49777;DHT22;35673;51.482;7.436;2023-06-01T01:36:21;16.30;70.90
49777;DHT22;35673;51.482;7.436;2023-06-01T01:38:47;16.20;71.00
49777;DHT22;35673;51.482;7.436;2023-06-01T01:41:12;16.10;71.70
49777;DHT22;35673;51.482;7.436;2023-06-01T01:43:38;16.10;71.80
49777;DHT22;35673;51.482;7.436;2023-06-01T01:46:23;16.10;71.80
49777;DHT22;35673;51.482;7.436;2023-06-01T01:49:02;16.10;71.80
49777;DHT22;35673;51.482;7.436;2023-06-01T01:53:58;16.00;72.70
49777;DHT22;35673;51.482;7.436;2023-06-01T01:56:24;16.00;73.10
49777;DHT22;35673;51.482;7.436;2023-06-01T01:58:51;15.90;72.80
49777;DHT22;35673;51.482;7.436;2023-06-01T02:01:17;16.00;73.00
49777;DHT22;35673;51.482;7.436;2023-06-01T02:03:43;15.90;72.70
49777;DHT22;35673;51.482;7.436;2023-06-01T02:06:08;15.90;72.60
49777;DHT22;35673;51.482;7.436;2023-06-01T02:08:34;15.80;73.00
49777;DHT22;35673;51.482;7.436;2023-06-01T02:10:59;15.80;73.00
49777;DHT22;35673;51.482;7.436;2023-06-01T02:13:25;15.80;73.30
49777;DHT22;35673;51.482;7.436;2023-06-01T02:15:50;15.80;73.60
49777;DHT22;35673;51.482;7.436;2023-06-01T02:18:16;15.80;73.40
49777;DHT22;35673;51.482;7.436;2023-06-01T02:20:43;15.70;73.50
49777;DHT22;35673;51.482;7.436;2023-06-01T02:23:09;15.60;73.90
49777;DHT22;35673;51.482;7.436;2023-06-01T02:25:35;15.60;73.40
49777;DHT22;35673;51.482;7.436;2023-06-01T02:28:02;15.50;73.50
49777;DHT22;35673;51.482;7.436;2023-06-01T02:30:28;15.50;74.40
49777;DHT22;35673;51.482;7.436;2023-06-01T02:32:53;15.50;74.80
49777;DHT22;35673;51.482;7.436;2023-06-01T02:35:19;15.50;74.80
49777;DHT22;35673;51.482;7.436;2023-06-01T02:37:45;15.40;73.90
49777;DHT22;35673;51.482;7.436;2023-06-01T02:40:10;15.30;74.50
49777;DHT22;35673;51.482;7.436;2023-06-01T02:42:37;15.20;74.60
49777;DHT22;35673;51.482;7.436;2023-06-01T02:45:03;15.10;74.40
49777;DHT22;35673;51.482;7.436;2023-06-01T02:47:29;15.10;74.90
49777;DHT22;35673;51.482;7.436;2023-06-01T02:49:55;15.10;74.60
49777;DHT22;35673;51.482;7.436;2023-06-01T02:52:20;15.20;75.10
49777;DHT22;35673;51.482;7.436;2023-06-01T02:54:46;15.20;75.10
49777;DHT22;35673;51.482;7.436;2023-06-01T02:57:11;15.20;75.30
49777;DHT22;35673;51.482;7.436;2023-06-01T02:59:37;15.10;75.60
49777;DHT22;35673;51.482;7.436;2023-06-01T03:02:02;15.10;75.10
49777;DHT22;35673;51.482;7.436;2023-06-01T03:04:28;15.00;75.80
49777;DHT22;35673;51.482;7.436;2023-06-01T03:06:58;15.00;75.70
49777;DHT22;35673;51.482;7.436;2023-06-01T03:09:24;15.00;74.90
49777;DHT22;35673;51.482;7.436;2023-06-01T03:11:50;14.80;75.50
49777;DHT22;35673;51.482;7.436;2023-06-01T03:14:15;14.80;76.40
49777;DHT22;35673;51.482;7.436;2023-06-01T03:16:41;14.80;75.80
49777;DHT22;35673;51.482;7.436;2023-06-01T03:19:06;14.80;76.20
49777;DHT22;35673;51.482;7.436;2023-06-01T03:21:32;14.80;76.50
49777;DHT22;35673;51.482;7.436;2023-06-01T03:23:57;14.80;76.40
49777;DHT22;35673;51.482;7.436;2023-06-01T03:26:23;14.80;76.20
49777;DHT22;35673;51.482;7.436;2023-06-01T03:28:50;14.60;75.60
49777;DHT22;35673;51.482;7.436;2023-06-01T03:31:15;14.60;76.20
49777;DHT22;35673;51.482;7.436;2023-06-01T03:33:41;14.60;76.50
49777;DHT22;35673;51.482;7.436;2023-06-01T03:36:06;14.50;76.20
49777;DHT22;35673;51.482;7.436;2023-06-01T03:38:33;14.50;75.80
49777;DHT22;35673;51.482;7.436;2023-06-01T03:41:01;14.50;76.80
49777;DHT22;35673;51.482;7.436;2023-06-01T03:43:27;14.50;77.10
49777;DHT22;35673;51.482;7.436;2023-06-01T03:45:52;14.60;77.00
49777;DHT22;35673;51.482;7.436;2023-06-01T03:48:18;14.60;76.90
49777;DHT22;35673;51.482;7.436;2023-06-01T03:50:44;14.60;77.30
49777;DHT22;35673;51.482;7.436;2023-06-01T03:53:10;14.60;77.30
49777;DHT22;35673;51.482;7.436;2023-06-01T03:55:35;14.60;77.30
49777;DHT22;35673;51.482;7.436;2023-06-01T03:58:01;14.60;76.90
49777;DHT22;35673;51.482;7.436;2023-06-01T04:00:28;14.60;76.80
49777;DHT22;35673;51.482;7.436;2023-06-01T04:02:54;14.60;76.80
49777;DHT22;35673;51.482;7.436;2023-06-01T04:05:20;14.50;77.00
49777;DHT22;35673;51.482;7.436;2023-06-01T04:07:49;14.50;77.00
49777;DHT22;35673;51.482;7.436;2023-06-01T04:10:15;14.50;76.80
49777;DHT22;35673;51.482;7.436;2023-06-01T04:12:45;14.50;76.60
49777;DHT22;35673;51.482;7.436;2023-06-01T04:15:12;14.40;76.90
49777;DHT22;35673;51.482;7.436;2023-06-01T04:17:38;14.40;77.20
49777;DHT22;35673;51.482;7.436;2023-06-01T04:20:05;14.40;77.10
49777;DHT22;35673;51.482;7.436;2023-06-01T04:22:31;14.40;77.50
49777;DHT22;35673;51.482;7.436;2023-06-01T04:24:57;14.40;77.30
49777;DHT22;35673;51.482;7.436;2023-06-01T04:27:22;14.30;77.60
49777;DHT22;35673;51.482;7.436;2023-06-01T04:29:50;14.30;77.30
49777;DHT22;35673;51.482;7.436;2023-06-01T04:32:15;14.30;77.10
49777;DHT22;35673;51.482;7.436;2023-06-01T04:34:49;14.30;77.50
49777;DHT22;35673;51.482;7.436;2023-06-01T04:37:16;14.30;77.60
49777;DHT22;35673;51.482;7.436;2023-06-01T04:39:46;14.30;77.50
49777;DHT22;35673;51.482;7.436;2023-06-01T04:42:15;14.30;77.10
49777;DHT22;35673;51.482;7.436;2023-06-01T04:44:42;14.30;77.50
49777;DHT22;35673;51.482;7.436;2023-06-01T04:47:08;14.30;77.40
49777;DHT22;35673;51.482;7.436;2023-06-01T04:49:33;14.30;77.30
49777;DHT22;35673;51.482;7.436;2023-06-01T04:52:00;14.20;76.70
49777;DHT22;35673;51.482;7.436;2023-06-01T04:54:25;14.30;77.30
49777;DHT22;35673;51.482;7.436;2023-06-01T04:56:51;14.10;77.00
49777;DHT22;35673;51.482;7.436;2023-06-01T04:59:16;14.10;77.20
49777;DHT22;35673;51.482;7.436;2023-06-01T05:01:42;14.10;76.70
49777;DHT22;35673;51.482;7.436;2023-06-01T05:04:07;14.10;77.40
49777;DHT22;35673;51.482;7.436;2023-06-01T05:06:33;14.10;76.80
49777;DHT22;35673;51.482;7.436;2023-06-01T05:08:59;14.10;77.10
49777;DHT22;35673;51.482;7.436;2023-06-01T05:11:28;14.10;76.70
49777;DHT22;35673;51.482;7.436;2023-06-01T05:13:55;14.00;77.20
49777;DHT22;35673;51.482;7.436;2023-06-01T05:16:26;14.00;76.90
49777;DHT22;35673;51.482;7.436;2023-06-01T05:18:55;14.00;77.60
49777;DHT22;35673;51.482;7.436;2023-06-01T05:21:21;14.00;77.40
49777;DHT22;35673;51.482;7.436;2023-06-01T05:23:47;14.00;77.20
49777;DHT22;35673;51.482;7.436;2023-06-01T05:26:13;14.00;76.70
49777;DHT22;35673;51.482;7.436;2023-06-01T05:28:39;13.90;76.70
49777;DHT22;35673;51.482;7.436;2023-06-01T05:31:04;13.90;76.40
49777;DHT22;35673;51.482;7.436;2023-06-01T05:33:30;13.90;76.80
49777;DHT22;35673;51.482;7.436;2023-06-01T05:35:56;14.00;77.10
49777;DHT22;35673;51.482;7.436;2023-06-01T05:38:22;14.00;76.40
49777;DHT22;35673;51.482;7.436;2023-06-01T05:40:47;14.00;76.40
49777;DHT22;35673;51.482;7.436;2023-06-01T05:43:13;14.00;76.50
49777;DHT22;35673;51.482;7.436;2023-06-01T05:45:39;14.00;76.40
49777;DHT22;35673;51.482;7.436;2023-06-01T05:48:05;14.00;76.30
49777;DHT22;35673;51.482;7.436;2023-06-01T05:50:31;14.00;76.20
49777;DHT22;35673;51.482;7.436;2023-06-01T05:52:57;14.00;75.80
49777;DHT22;35673;51.482;7.436;2023-06-01T05:55:23;14.00;75.60
49777;DHT22;35673;51.482;7.436;2023-06-01T05:57:48;14.00;76.00
49777;DHT22;35673;51.482;7.436;2023-06-01T06:00:14;14.00;75.60
49777;DHT22;35673;51.482;7.436;2023-06-01T06:02:44;14.00;75.50
49777;DHT22;35673;51.482;7.436;2023-06-01T06:05:09;14.00;75.60
49777;DHT22;35673;51.482;7.436;2023-06-01T06:07:35;14.00;75.80
49777;DHT22;35673;51.482;7.436;2023-06-01T06:10:01;14.00;75.80
49777;DHT22;35673;51.482;7.436;2023-06-01T06:12:27;14.10;76.20
49777;DHT22;35673;51.482;7.436;2023-06-01T06:14:52;14.20;75.40
49777;DHT22;35673;51.482;7.436;2023-06-01T06:17:19;14.20;75.20
49777;DHT22;35673;51.482;7.436;2023-06-01T06:19:44;14.20;75.50
49777;DHT22;35673;51.482;7.436;2023-06-01T06:22:10;14.20;75.00
49777;DHT22;35673;51.482;7.436;2023-06-01T06:24:35;14.20;75.10
49777;DHT22;35673;51.482;7.436;2023-06-01T06:27:01;14.30;75.00
49777;DHT22;35673;51.482;7.436;2023-06-01T06:29:27;14.30;75.00
49777;DHT22;35673;51.482;7.436;2023-06-01T06:31:53;14.40;75.00
49777;DHT22;35673;51.482;7.436;2023-06-01T06:34:18;14.50;74.50
49777;DHT22;35673;51.482;7.436;2023-06-01T06:36:44;14.50;74.80
49777;DHT22;35673;51.482;7.436;2023-06-01T06:39:09;14.50;74.70
49777;DHT22;35673;51.482;7.436;2023-06-01T06:41:35;14.50;74.60
49777;DHT22;35673;51.482;7.436;2023-06-01T06:44:01;14.60;74.80
49777;DHT22;35673;51.482;7.436;2023-06-01T06:46:26;14.60;74.30
49777;DHT22;35673;51.482;7.436;2023-06-01T06:48:52;14.60;73.90
49777;DHT22;35673;51.482;7.436;2023-06-01T06:51:17;14.60;73.80
49777;DHT22;35673;51.482;7.436;2023-06-01T06:53:43;14.60;73.40
49777;DHT22;35673;51.482;7.436;2023-06-01T06:56:09;14.60;72.90
49777;DHT22;35673;51.482;7.436;2023-06-01T06:58:34;14.60;73.40
49777;DHT22;35673;51.482;7.436;2023-06-01T07:01:00;14.60;73.10
49777;DHT22;35673;51.482;7.436;2023-06-01T07:03:30;14.60;73.60
49777;DHT22;35673;51.482;7.436;2023-06-01T07:05:55;14.70;73.30
49777;DHT22;35673;51.482;7.436;2023-06-01T07:08:21;14.70;73.10
49777;DHT22;35673;51.482;7.436;2023-06-01T07:10:46;14.90;73.20
49777;DHT22;35673;51.482;7.436;2023-06-01T07:13:12;14.90;72.50
49777;DHT22;35673;51.482;7.436;2023-06-01T07:15:38;15.00;72.50
49777;DHT22;35673;51.482;7.436;2023-06-01T07:18:04;15.10;72.40
49777;DHT22;35673;51.482;7.436;2023-06-01T07:20:29;15.10;72.30
49777;DHT22;35673;51.482;7.436;2023-06-01T07:22:55;15.20;72.10
49777;DHT22;35673;51.482;7.436;2023-06-01T07:25:20;15.30;72.60
49777;DHT22;35673;51.482;7.436;2023-06-01T07:27:46;15.30;71.40
49777;DHT22;35673;51.482;7.436;2023-06-01T07:30:13;15.40;71.30
49777;DHT22;35673;51.482;7.436;2023-06-01T07:32:40;15.40;71.50
49777;DHT22;35673;51.482;7.436;2023-06-01T07:35:11;15.50;71.70
49777;DHT22;35673;51.482;7.436;2023-06-01T07:37:37;15.60;71.10
49777;DHT22;35673;51.482;7.436;2023-06-01T07:40:03;15.60;70.80
49777;DHT22;35673;51.482;7.436;2023-06-01T07:42:30;15.60;70.80
49777;DHT22;35673;51.482;7.436;2023-06-01T07:44:56;15.70;70.60
49777;DHT22;35673;51.482;7.436;2023-06-01T07:47:21;15.70;70.80
49777;DHT22;35673;51.482;7.436;2023-06-01T07:49:48;15.70;70.50
49777;DHT22;35673;51.482;7.436;2023-06-01T07:52:13;15.70;70.80
49777;DHT22;35673;51.482;7.436;2023-06-01T07:54:39;15.80;70.60
49777;DHT22;35673;51.482;7.436;2023-06-01T07:57:05;16.00;70.60
49777;DHT22;35673;51.482;7.436;2023-06-01T07:59:31;16.00;70.00
49777;DHT22;35673;51.482;7.436;2023-06-01T08:01:57;16.10;69.80
49777;DHT22;35673;51.482;7.436;2023-06-01T08:04:22;16.20;69.60
49777;DHT22;35673;51.482;7.436;2023-06-01T08:06:51;16.20;69.50
49777;DHT22;35673;51.482;7.436;2023-06-01T08:09:21;16.30;69.20
49777;DHT22;35673;51.482;7.436;2023-06-01T08:11:47;16.30;69.70
49777;DHT22;35673;51.482;7.436;2023-06-01T08:14:13;16.30;69.10
49777;DHT22;35673;51.482;7.436;2023-06-01T08:16:38;16.20;69.30
49777;DHT22;35673;51.482;7.436;2023-06-01T08:19:04;16.10;69.30
49777;DHT22;35673;51.482;7.436;2023-06-01T08:21:30;16.10;68.90
49777;DHT22;35673;51.482;7.436;2023-06-01T08:23:55;16.00;69.40
49777;DHT22;35673;51.482;7.436;2023-06-01T08:26:21;15.90;69.30
49777;DHT22;35673;51.482;7.436;2023-06-01T08:28:47;16.00;69.80
49777;DHT22;35673;51.482;7.436;2023-06-01T08:31:21;16.10;69.60
49777;DHT22;35673;51.482;7.436;2023-06-01T08:33:47;16.30;69.80
49777;DHT22;35673;51.482;7.436;2023-06-01T08:36:13;16.50;68.90
49777;DHT22;35673;51.482;7.436;2023-06-01T08:38:39;16.70;68.60
49777;DHT22;35673;51.482;7.436;2023-06-01T08:41:09;16.80;68.10
49777;DHT22;35673;51.482;7.436;2023-06-01T08:43:35;17.00;67.80
49777;DHT22;35673;51.482;7.436;2023-06-01T08:46:04;17.20;67.00
49777;DHT22;35673;51.482;7.436;2023-06-01T08:48:30;17.20;66.60
49777;DHT22;35673;51.482;7.436;2023-06-01T08:50:56;17.40;66.30
49777;DHT22;35673;51.482;7.436;2023-06-01T08:53:24;17.50;65.90
49777;DHT22;35673;51.482;7.436;2023-06-01T08:55:54;17.50;65.50
49777;DHT22;35673;51.482;7.436;2023-06-01T08:58:20;17.40;65.60
49777;DHT22;35673;51.482;7.436;2023-06-01T09:00:48;17.40;66.00
49777;DHT22;35673;51.482;7.436;2023-06-01T09:03:14;17.50;65.40
49777;DHT22;35673;51.482;7.436;2023-06-01T09:05:40;17.60;65.70
49777;DHT22;35673;51.482;7.436;2023-06-01T09:08:05;17.60;65.30
49777;DHT22;35673;51.482;7.436;2023-06-01T09:10:31;17.60;65.50
49777;DHT22;35673;51.482;7.436;2023-06-01T09:12:57;17.80;64.90
49777;DHT22;35673;51.482;7.436;2023-06-01T09:15:23;17.80;64.50
49777;DHT22;35673;51.482;7.436;2023-06-01T09:17:51;17.90;64.20
49777;DHT22;35673;51.482;7.436;2023-06-01T09:20:24;17.70;64.00
49777;DHT22;35673;51.482;7.436;2023-06-01T09:22:50;17.60;64.60
49777;DHT22;35673;51.482;7.436;2023-06-01T09:25:16;17.40;65.20
49777;DHT22;35673;51.482;7.436;2023-06-01T09:27:46;17.20;65.30
49777;DHT22;35673;51.482;7.436;2023-06-01T09:30:12;17.20;66.20
49777;DHT22;35673;51.482;7.436;2023-06-01T09:32:38;17.30;65.10
49777;DHT22;35673;51.482;7.436;2023-06-01T09:35:08;17.30;65.70
49777;DHT22;35673;51.482;7.436;2023-06-01T09:37:36;17.50;65.70
49777;DHT22;35673;51.482;7.436;2023-06-01T09:40:02;17.50;65.60
49777;DHT22;35673;51.482;7.436;2023-06-01T09:42:32;17.60;65.40
49777;DHT22;35673;51.482;7.436;2023-06-01T09:45:41;17.50;66.00
49777;DHT22;35673;51.482;7.436;2023-06-01T09:47:48;17.50;66.20
49777;DHT22;35673;51.482;7.436;2023-06-01T09:53:15;17.10;67.00
49777;DHT22;35673;51.482;7.436;2023-06-01T09:55:58;17.20;67.40
49777;DHT22;35673;51.482;7.436;2023-06-01T09:58:24;17.20;66.90
49777;DHT22;35673;51.482;7.436;2023-06-01T10:00:50;17.30;67.60
49777;DHT22;35673;51.482;7.436;2023-06-01T10:03:17;17.40;67.50
49777;DHT22;35673;51.482;7.436;2023-06-01T10:05:43;17.50;67.10
49777;DHT22;35673;51.482;7.436;2023-06-01T10:08:13;17.60;66.90
49777;DHT22;35673;51.482;7.436;2023-06-01T10:10:39;17.60;66.80
49777;DHT22;35673;51.482;7.436;2023-06-01T10:13:07;17.60;66.70
49777;DHT22;35673;51.482;7.436;2023-06-01T10:15:33;17.70;65.90
49777;DHT22;35673;51.482;7.436;2023-06-01T10:18:02;17.60;65.50
49777;DHT22;35673;51.482;7.436;2023-06-01T10:20:28;17.60;66.10
49777;DHT22;35673;51.482;7.436;2023-06-01T10:22:54;17.60;66.50
49777;DHT22;35673;51.482;7.436;2023-06-01T10:25:20;17.70;66.90
49777;DHT22;35673;51.482;7.436;2023-06-01T10:28:22;17.80;66.60
49777;DHT22;35673;51.482;7.436;2023-06-01T10:30:40;17.80;66.10
49777;DHT22;35673;51.482;7.436;2023-06-01T10:33:06;17.90;67.00
49777;DHT22;35673;51.482;7.436;2023-06-01T10:40:35;17.80;66.10
49777;DHT22;35673;51.482;7.436;2023-06-01T10:43:02;17.90;66.70
49777;DHT22;35673;51.482;7.436;2023-06-01T10:47:59;18.10;66.80
49777;DHT22;35673;51.482;7.436;2023-06-01T10:50:26;18.20;67.10
49777;DHT22;35673;51.482;7.436;2023-06-01T10:52:52;18.20;67.00
49777;DHT22;35673;51.482;7.436;2023-06-01T10:55:20;18.30;66.60
49777;DHT22;35673;51.482;7.436;2023-06-01T10:57:46;18.40;66.80
49777;DHT22;35673;51.482;7.436;2023-06-01T11:00:21;18.40;66.60
49777;DHT22;35673;51.482;7.436;2023-06-01T11:07:58;18.50;66.80
49777;DHT22;35673;51.482;7.436;2023-06-01T11:13:14;18.40;66.40
49777;DHT22;35673;51.482;7.436;2023-06-01T11:16:44;18.40;66.60
49777;DHT22;35673;51.482;7.436;2023-06-01T11:19:16;18.50;66.10
49777;DHT22;35673;51.482;7.436;2023-06-01T11:21:35;18.50;66.60
49777;DHT22;35673;51.482;7.436;2023-06-01T11:24:05;18.60;66.90
49777;DHT22;35673;51.482;7.436;2023-06-01T11:26:35;18.70;67.30
49777;DHT22;35673;51.482;7.436;2023-06-01T11:29:09;18.70;66.10
49777;DHT22;35673;51.482;7.436;2023-06-01T11:31:43;18.80;66.10
49777;DHT22;35673;51.482;7.436;2023-06-01T11:34:10;18.80;66.10
49777;DHT22;35673;51.482;7.436;2023-06-01T11:36:36;18.90;65.70
49777;DHT22;35673;51.482;7.436;2023-06-01T11:39:02;18.90;66.10
49777;DHT22;35673;51.482;7.436;2023-06-01T11:41:28;18.90;65.70
49777;DHT22;35673;51.482;7.436;2023-06-01T11:43:54;18.90;65.70
49777;DHT22;35673;51.482;7.436;2023-06-01T11:46:20;19.00;65.30
49777;DHT22;35673;51.482;7.436;2023-06-01T11:48:57;19.00;65.10
49777;DHT22;35673;51.482;7.436;2023-06-01T11:51:27;19.00;65.10
49777;DHT22;35673;51.482;7.436;2023-06-01T11:53:53;19.00;65.10
49777;DHT22;35673;51.482;7.436;2023-06-01T11:56:20;19.10;65.30
49777;DHT22;35673;51.482;7.436;2023-06-01T11:58:46;19.20;65.30
49777;DHT22;35673;51.482;7.436;2023-06-01T12:01:13;19.40;64.50
49777;DHT22;35673;51.482;7.436;2023-06-01T12:03:45;19.40;65.00
49777;DHT22;35673;51.482;7.436;2023-06-01T12:06:20;19.40;64.70
49777;DHT22;35673;51.482;7.436;2023-06-01T12:08:47;19.40;64.80
49777;DHT22;35673;51.482;7.436;2023-06-01T12:11:12;19.50;64.80
49777;DHT22;35673;51.482;7.436;2023-06-01T12:13:39;19.50;64.10
49777;DHT22;35673;51.482;7.436;2023-06-01T12:16:05;19.40;64.60
49777;DHT22;35673;51.482;7.436;2023-06-01T12:18:30;19.40;65.20
49777;DHT22;35673;51.482;7.436;2023-06-01T12:20:56;19.40;64.10
49777;DHT22;35673;51.482;7.436;2023-06-01T12:23:22;19.40;64.40
49777;DHT22;35673;51.482;7.436;2023-06-01T12:28:14;19.40;65.00
49777;DHT22;35673;51.482;7.436;2023-06-01T12:30:39;19.60;64.20
49777;DHT22;35673;51.482;7.436;2023-06-01T12:33:05;19.60;64.20
49777;DHT22;35673;51.482;7.436;2023-06-01T12:35:31;19.70;64.40
49777;DHT22;35673;51.482;7.436;2023-06-01T12:38:06;19.80;64.10
49777;DHT22;35673;51.482;7.436;2023-06-01T12:40:32;19.90;64.00
49777;DHT22;35673;51.482;7.436;2023-06-01T12:42:58;19.90;64.30
49777;DHT22;35673;51.482;7.436;2023-06-01T12:45:24;20.10;63.60
49777;DHT22;35673;51.482;7.436;2023-06-01T12:47:50;20.10;63.90
49777;DHT22;35673;51.482;7.436;2023-06-01T12:50:15;20.20;63.20
49777;DHT22;35673;51.482;7.436;2023-06-01T12:52:41;20.30;63.40
49777;DHT22;35673;51.482;7.436;2023-06-01T12:55:10;20.30;63.00
49777;DHT22;35673;51.482;7.436;2023-06-01T12:57:35;20.70;63.10
49777;DHT22;35673;51.482;7.436;2023-06-01T13:00:04;21.20;62.10
49777;DHT22;35673;51.482;7.436;2023-06-01T13:02:31;21.10;61.80
49777;DHT22;35673;51.482;7.436;2023-06-01T13:04:57;21.40;60.80
49777;DHT22;35673;51.482;7.436;2023-06-01T13:07:23;22.00;59.90
49777;DHT22;35673;51.482;7.436;2023-06-01T13:09:49;23.60;59.40
49777;DHT22;35673;51.482;7.436;2023-06-01T13:12:15;26.00;56.80
49777;DHT22;35673;51.482;7.436;2023-06-01T13:14:40;27.10;53.20
49777;DHT22;35673;51.482;7.436;2023-06-01T13:17:07;27.70;53.10
49777;DHT22;35673;51.482;7.436;2023-06-01T13:19:32;29.00;51.90
49777;DHT22;35673;51.482;7.436;2023-06-01T13:21:58;30.10;50.50
49777;DHT22;35673;51.482;7.436;2023-06-01T13:24:23;31.00;49.20
49777;DHT22;35673;51.482;7.436;2023-06-01T13:26:49;31.70;48.20
49777;DHT22;35673;51.482;7.436;2023-06-01T13:29:15;32.30;47.90
49777;DHT22;35673;51.482;7.436;2023-06-01T13:31:41;33.00;47.00
49777;DHT22;35673;51.482;7.436;2023-06-01T13:34:07;32.90;46.20
49777;DHT22;35673;51.482;7.436;2023-06-01T13:36:32;33.10;46.10
49777;DHT22;35673;51.482;7.436;2023-06-01T13:38:58;33.60;46.40
49777;DHT22;35673;51.482;7.436;2023-06-01T13:41:23;33.50;46.30
49777;DHT22;35673;51.482;7.436;2023-06-01T13:43:49;33.60;47.40
49777;DHT22;35673;51.482;7.436;2023-06-01T13:46:15;33.70;45.90
49777;DHT22;35673;51.482;7.436;2023-06-01T13:48:41;33.60;47.10
49777;DHT22;35673;51.482;7.436;2023-06-01T13:51:06;34.10;46.40
49777;DHT22;35673;51.482;7.436;2023-06-01T13:53:32;34.70;44.90
49777;DHT22;35673;51.482;7.436;2023-06-01T13:55:58;35.20;45.10
49777;DHT22;35673;51.482;7.436;2023-06-01T13:58:24;35.60;44.20
49777;DHT22;35673;51.482;7.436;2023-06-01T14:00:49;35.70;45.40
49777;DHT22;35673;51.482;7.436;2023-06-01T14:03:15;35.70;43.80
49777;DHT22;35673;51.482;7.436;2023-06-01T14:05:41;36.20;44.80
49777;DHT22;35673;51.482;7.436;2023-06-01T14:08:07;36.40;43.40
49777;DHT22;35673;51.482;7.436;2023-06-01T14:10:33;36.70;43.30
49777;DHT22;35673;51.482;7.436;2023-06-01T14:12:59;37.00;43.40
49777;DHT22;35673;51.482;7.436;2023-06-01T14:15:25;37.20;42.90
49777;DHT22;35673;51.482;7.436;2023-06-01T14:17:51;37.40;42.90
49777;DHT22;35673;51.482;7.436;2023-06-01T14:20:17;37.80;42.80
49777;DHT22;35673;51.482;7.436;2023-06-01T14:22:43;38.30;42.50
49777;DHT22;35673;51.482;7.436;2023-06-01T14:25:08;38.30;42.40
49777;DHT22;35673;51.482;7.436;2023-06-01T14:27:34;38.20;42.50
49777;DHT22;35673;51.482;7.436;2023-06-01T14:30:02;38.80;42.90
49777;DHT22;35673;51.482;7.436;2023-06-01T14:32:28;39.00;40.70
49777;DHT22;35673;51.482;7.436;2023-06-01T14:34:54;39.50;41.40
49777;DHT22;35673;51.482;7.436;2023-06-01T14:37:19;39.80;41.30
49777;DHT22;35673;51.482;7.436;2023-06-01T14:39:45;40.00;41.80
49777;DHT22;35673;51.482;7.436;2023-06-01T14:42:11;39.70;40.80
49777;DHT22;35673;51.482;7.436;2023-06-01T14:44:37;40.00;40.80
49777;DHT22;35673;51.482;7.436;2023-06-01T14:47:03;40.50;40.40
49777;DHT22;35673;51.482;7.436;2023-06-01T14:49:28;40.80;40.40
49777;DHT22;35673;51.482;7.436;2023-06-01T14:51:54;40.80;40.50
49777;DHT22;35673;51.482;7.436;2023-06-01T14:54:20;40.80;40.70
49777;DHT22;35673;51.482;7.436;2023-06-01T14:56:46;40.80;40.40
49777;DHT22;35673;51.482;7.436;2023-06-01T14:59:11;40.60;38.90
49777;DHT22;35673;51.482;7.436;2023-06-01T15:01:37;41.00;41.10
49777;DHT22;35673;51.482;7.436;2023-06-01T15:04:02;41.20;38.30
49777;DHT22;35673;51.482;7.436;2023-06-01T15:06:28;41.00;40.60
49777;DHT22;35673;51.482;7.436;2023-06-01T15:08:53;40.80;38.90
49777;DHT22;35673;51.482;7.436;2023-06-01T15:11:19;41.10;37.40
49777;DHT22;35673;51.482;7.436;2023-06-01T15:13:45;41.20;39.40
49777;DHT22;35673;51.482;7.436;2023-06-01T15:16:11;42.00;39.90
49777;DHT22;35673;51.482;7.436;2023-06-01T15:18:36;41.70;38.90
49777;DHT22;35673;51.482;7.436;2023-06-01T15:21:03;41.60;40.00
49777;DHT22;35673;51.482;7.436;2023-06-01T15:23:29;41.70;39.30
49777;DHT22;35673;51.482;7.436;2023-06-01T15:25:55;42.00;38.50
49777;DHT22;35673;51.482;7.436;2023-06-01T15:28:20;42.50;38.40
49777;DHT22;35673;51.482;7.436;2023-06-01T15:30:46;43.00;38.40
49777;DHT22;35673;51.482;7.436;2023-06-01T15:33:11;43.20;36.70
49777;DHT22;35673;51.482;7.436;2023-06-01T15:35:39;42.50;38.30
49777;DHT22;35673;51.482;7.436;2023-06-01T15:38:04;42.60;38.20
49777;DHT22;35673;51.482;7.436;2023-06-01T15:40:30;42.60;38.20
49777;DHT22;35673;51.482;7.436;2023-06-01T15:42:55;42.90;38.00
49777;DHT22;35673;51.482;7.436;2023-06-01T15:45:21;42.60;37.20
49777;DHT22;35673;51.482;7.436;2023-06-01T15:47:46;42.40;38.20
49777;DHT22;35673;51.482;7.436;2023-06-01T15:50:12;42.00;37.10
49777;DHT22;35673;51.482;7.436;2023-06-01T15:52:37;41.00;41.20
49777;DHT22;35673;51.482;7.436;2023-06-01T15:55:03;40.30;39.90
49777;DHT22;35673;51.482;7.436;2023-06-01T15:57:29;39.90;39.00
49777;DHT22;35673;51.482;7.436;2023-06-01T15:59:54;39.00;39.90
49777;DHT22;35673;51.482;7.436;2023-06-01T16:02:20;39.00;40.40